Time;durP1;ratioP1;P1;durP2;ratioP2;P2;SDS_P1;SDS_P2;PMS_P1;PMS_P2;Temp;Humidity;BMP_temperature;BMP_pressure;BME280_temperature;BME280_humidity;BME280_pressure;Samples;Min_cycle;Max_cycle;Signal;HPM_P1;HPM_P2
2021/07/17 00:00:10;;;;;;;221.75;76.18;;;;;;;;;;2058000;28;100101;-13
2021/07/17 00:01:15;;;;;;;214.45;74.13;;;;;;;;;;2057870;28;99950;-13
2021/07/17 00:02:17;;;;;;;207.93;73.68;;;;;;;;;;2057785;28;100241;-14
2021/07/17 00:03:18;;;;;;;207.73;73.93;;;;;;;;;;2057902;28;99955;-15
2021/07/17 00:04:18;;;;;;;207.35;71.15;;;;;;;;;;2057246;28;100060;-15
2021/07/17 00:05:20;;;;;;;;;;;;;;;;;;2057714;28;99943;-14
2021/07/17 00:06:21;;;;;;;208.45;70.22;;;;;;;;;;2058261;28;99763;-14
2021/07/17 00:07:23;;;;;;;211.90;73.30;;;;;;;;;;2057925;28;100209;-15
2021/07/17 00:08:24;;;;;;;204.40;71.57;;;;;;;;;;2057239;28;99976;-15
2021/07/17 00:09:24;;;;;;;;;;;;;;;;;;2057814;28;99905;-13
2021/07/17 00:10:35;;;;;;;215.48;69.38;;;;;;;;;;2058251;28;99966;-13
2021/07/17 00:11:36;;;;;;;203.20;70.47;;;;;;;;;;2058094;28;99971;-14
2021/07/17 00:12:37;;;;;;;217.38;71.80;;;;;;;;;;2058231;28;99916;-14
2021/07/17 00:13:38;;;;;;;201.68;70.00;;;;;;;;;;2056524;28;99853;-14
2021/07/17 00:14:39;;;;;;;;;;;;;;;;;;2057825;28;99869;-13
2021/07/17 00:15:40;;;;;;;210.75;68.55;;;;;;;;;;2056866;28;99943;-14
2021/07/17 00:16:42;;;;;;;203.07;66.55;;;;;;;;;;2057782;28;99866;-14
2021/07/17 00:17:44;;;;;;;196.00;68.15;;;;;;;;;;2057982;28;99869;-14
2021/07/17 00:18:46;;;;;;;207.45;70.88;;;;;;;;;;2065885;28;100082;-14
2021/07/17 00:19:46;;;;;;;197.30;69.07;;;;;;;;;;2065391;28;99943;-13
2021/07/17 00:20:48;;;;;;;;;;;;;;;;;;2058727;28;99887;-14
2021/07/17 00:21:49;;;;;;;195.52;66.40;;;;;;;;;;2058327;28;99830;-15
2021/07/17 00:22:49;;;;;;;;;;;;;;;;;;2057902;28;99822;-14
2021/07/17 00:23:52;;;;;;;203.80;65.80;;;;;;;;;;2057271;28;100218;-14
2021/07/17 00:24:53;;;;;;;194.88;65.68;;;;;;;;;;2057794;28;99892;-13
2021/07/17 00:25:55;;;;;;;189.55;67.35;;;;;;;;;;2057638;28;99995;-14
2021/07/17 00:26:56;;;;;;;197.63;68.35;;;;;;;;;;2057981;28;99996;-13
2021/07/17 00:27:59;;;;;;;192.02;66.82;;;;;;;;;;2056824;28;99935;-15
2021/07/17 00:28:59;;;;;;;203.18;67.10;;;;;;;;;;2049328;28;99932;-13
2021/07/17 00:30:05;;;;;;;189.02;69.45;;;;;;;;;;2057156;28;100007;-13
2021/07/17 00:31:06;;;;;;;187.40;67.65;;;;;;;;;;2057800;28;99915;-14
2021/07/17 00:32:07;;;;;;;193.20;66.55;;;;;;;;;;2057741;28;100075;-15
2021/07/17 00:33:08;;;;;;;;;;;;;;;;;;2058275;28;99750;-13
2021/07/17 00:34:08;;;;;;;191.60;67.17;;;;;;;;;;2056735;28;100128;-14
2021/07/17 00:35:09;;;;;;;;;;;;;;;;;;2057896;28;99865;-13
2021/07/17 00:36:10;;;;;;;196.18;64.38;;;;;;;;;;2058020;28;101357;-14
2021/07/17 00:37:11;;;;;;;183.00;62.88;;;;;;;;;;2058121;28;99924;-15
2021/07/17 00:38:12;;;;;;;193.73;66.75;;;;;;;;;;2057849;28;99852;-14
2021/07/17 00:39:13;;;;;;;;;;;;;;;;;;2058077;28;99876;-15
2021/07/17 00:40:19;;;;;;;188.10;63.35;;;;;;;;;;2056728;28;100005;-13
2021/07/17 00:41:20;;;;;;;185.07;64.40;;;;;;;;;;2057195;28;99949;-13
2021/07/17 00:42:21;;;;;;;;;;;;;;;;;;2058146;28;99884;-14
2021/07/17 00:43:22;;;;;;;180.10;60.78;;;;;;;;;;2057733;28;99881;-14
2021/07/17 00:44:23;;;;;;;187.27;64.47;;;;;;;;;;2057770;28;99924;-15
2021/07/17 00:45:24;;;;;;;;;;;;;;;;;;2057551;28;99898;-14
2021/07/17 00:46:28;;;;;;;181.38;62.60;;;;;;;;;;2057301;28;99972;-13
2021/07/17 00:47:30;;;;;;;180.77;62.58;;;;;;;;;;2057312;28;99944;-13
2021/07/17 00:48:31;;;;;;;193.55;66.35;;;;;;;;;;2057752;28;99948;-14
2021/07/17 00:49:32;;;;;;;;;;;;;;;;;;2058274;28;99887;-14
2021/07/17 00:50:33;;;;;;;187.80;61.15;;;;;;;;;;2057146;28;99969;-15
2021/07/17 00:51:34;;;;;;;;;;;;;;;;;;2049948;28;99943;-13
2021/07/17 00:52:35;;;;;;;179.73;60.40;;;;;;;;;;2041130;28;99893;-14
2021/07/17 00:53:39;;;;;;;176.50;59.90;;;;;;;;;;2057195;28;99829;-14
2021/07/17 00:54:40;;;;;;;;;;;;;;;;;;2057788;28;100110;-14
2021/07/17 00:55:45;;;;;;;172.27;59.70;;;;;;;;;;2058120;28;99773;-15
2021/07/17 00:56:48;;;;;;;186.18;63.80;;;;;;;;;;2057932;28;99950;-15
2021/07/17 00:57:51;;;;;;;176.50;60.97;;;;;;;;;;2056923;28;99943;-14
2021/07/17 00:58:58;;;;;;;183.13;62.35;;;;;;;;;;2049065;28;99971;-14
2021/07/17 01:00:01;;;;;;;180.77;61.25;;;;;;;;;;2057064;28;99878;-14
2021/07/17 01:01:02;;;;;;;177.00;60.35;;;;;;;;;;2057780;28;99851;-14
2021/07/17 01:02:04;;;;;;;170.77;59.33;;;;;;;;;;2058114;28;99920;-14
2021/07/17 01:03:07;;;;;;;171.68;60.53;;;;;;;;;;2056664;28;100098;-14
2021/07/17 01:04:09;;;;;;;173.77;62.15;;;;;;;;;;2057300;28;100123;-14
2021/07/17 01:05:10;;;;;;;173.90;59.10;;;;;;;;;;2057620;28;99919;-15
2021/07/17 01:06:18;;;;;;;172.00;60.58;;;;;;;;;;2057648;28;99900;-13
2021/07/17 01:07:19;;;;;;;;;;;;;;;;;;2057267;28;99900;-13
2021/07/17 01:08:21;;;;;;;187.30;60.83;;;;;;;;;;2040835;28;99958;-14
2021/07/17 01:09:22;;;;;;;167.18;57.58;;;;;;;;;;2049296;28;99874;-14
2021/07/17 01:10:25;;;;;;;170.40;60.47;;;;;;;;;;2057773;28;100025;-13
2021/07/17 01:11:26;;;;;;;176.00;60.85;;;;;;;;;;2057719;28;100007;-14
2021/07/17 01:12:27;;;;;;;166.10;58.33;;;;;;;;;;2057911;28;100226;-14
2021/07/17 01:13:28;;;;;;;;;;;;;;;;;;2057562;28;99904;-15
2021/07/17 01:14:31;;;;;;;164.43;56.08;;;;;;;;;;2060199;28;99939;-15
2021/07/17 01:15:32;;;;;;;160.18;57.40;;;;;;;;;;2056605;28;99974;-16
2021/07/17 01:16:34;;;;;;;171.60;60.33;;;;;;;;;;2053948;28;100145;-15
2021/07/17 01:17:41;;;;;;;162.60;56.75;;;;;;;;;;2056585;28;100000;-14
2021/07/17 01:18:43;;;;;;;152.10;57.80;;;;;;;;;;2054453;28;101935;-15
2021/07/17 01:19:44;;;;;;;159.48;57.70;;;;;;;;;;2056497;28;100205;-16
2021/07/17 01:20:47;;;;;;;159.63;56.78;;;;;;;;;;2050409;28;100013;-16
2021/07/17 01:21:48;;;;;;;153.30;56.65;;;;;;;;;;2048878;28;101409;-15
2021/07/17 01:22:50;;;;;;;158.18;56.85;;;;;;;;;;2053150;28;99828;-15
2021/07/17 01:23:52;;;;;;;163.77;57.33;;;;;;;;;;2041366;28;99908;-16
2021/07/17 01:24:53;;;;;;;161.43;57.85;;;;;;;;;;2051645;28;100041;-14
2021/07/17 01:25:54;;;;;;;154.02;56.45;;;;;;;;;;2056947;28;99983;-14
2021/07/17 01:26:56;;;;;;;158.70;56.45;;;;;;;;;;2057151;28;99893;-15
2021/07/17 01:27:58;;;;;;;167.27;57.63;;;;;;;;;;2051308;28;99918;-15
2021/07/17 01:28:59;;;;;;;151.45;56.17;;;;;;;;;;2051199;28;100102;-16
2021/07/17 01:30:00;;;;;;;;;;;;;;;;;;2040230;28;100120;-14
2021/07/17 01:31:01;;;;;;;152.50;54.33;;;;;;;;;;2038771;28;100022;-13
2021/07/17 01:32:02;;;;;;;;;;;;;;;;;;2055707;28;100020;-14
2021/07/17 01:33:04;;;;;;;159.27;55.65;;;;;;;;;;2048578;28;100136;-14
2021/07/17 01:34:05;;;;;;;157.20;55.15;;;;;;;;;;2048404;28;100027;-15
2021/07/17 01:35:07;;;;;;;153.02;53.33;;;;;;;;;;2049157;28;100023;-14
2021/07/17 01:36:08;;;;;;;157.85;55.25;;;;;;;;;;2047733;28;99984;-14
2021/07/17 01:37:09;;;;;;;151.65;54.15;;;;;;;;;;2048559;28;99924;-14
2021/07/17 01:38:10;;;;;;;;;;;;;;;;;;2049647;28;99782;-14
2021/07/17 01:39:11;;;;;;;140.93;51.75;;;;;;;;;;2049199;28;99895;-14
2021/07/17 01:40:18;;;;;;;142.40;51.28;;;;;;;;;;2048376;28;99939;-14
2021/07/17 01:41:20;;;;;;;150.93;54.00;;;;;;;;;;2047296;28;100032;-14
2021/07/17 01:42:24;;;;;;;145.82;53.53;;;;;;;;;;2056380;28;100186;-15
2021/07/17 01:43:25;;;;;;;155.68;56.45;;;;;;;;;;2057470;28;99940;-15
2021/07/17 01:44:43;;;;;;;145.38;52.33;;;;;;;;;;2056859;28;99889;-13
2021/07/17 01:45:47;;;;;;;147.57;52.33;;;;;;;;;;2057201;28;100111;-14
2021/07/17 01:46:48;;;;;;;136.50;50.10;;;;;;;;;;2056700;28;101178;-13
2021/07/17 01:47:49;;;;;;;142.60;51.88;;;;;;;;;;2057432;28;99798;-14
2021/07/17 01:48:52;;;;;;;151.35;51.53;;;;;;;;;;2057255;28;99837;-13
2021/07/17 01:49:52;;;;;;;148.77;51.50;;;;;;;;;;2057100;28;99923;-13
2021/07/17 01:50:54;;;;;;;137.88;52.47;;;;;;;;;;2056586;28;100027;-14
2021/07/17 01:51:54;;;;;;;136.55;52.40;;;;;;;;;;2056486;28;100147;-14
2021/07/17 01:52:55;;;;;;;;;;;;;;;;;;2056742;28;99971;-14
2021/07/17 01:53:57;;;;;;;133.75;49.65;;;;;;;;;;2057389;28;99877;-14
2021/07/17 01:54:57;;;;;;;140.80;50.47;;;;;;;;;;2056762;28;99821;-15
2021/07/17 01:55:58;;;;;;;;;;;;;;;;;;2042642;28;99851;-14
2021/07/17 01:57:00;;;;;;;132.97;50.63;;;;;;;;;;2040243;28;100212;-15
2021/07/17 01:58:02;;;;;;;142.43;49.90;;;;;;;;;;2049071;28;100309;-14
2021/07/17 01:59:03;;;;;;;136.80;49.72;;;;;;;;;;2048948;28;100016;-15
2021/07/17 02:00:06;;;;;;;147.75;51.13;;;;;;;;;;2049258;28;100073;-14
2021/07/17 02:01:08;;;;;;;121.85;48.17;;;;;;;;;;2048460;28;100228;-14
2021/07/17 02:02:13;;;;;;;141.95;51.60;;;;;;;;;;2041239;28;100061;-14
2021/07/17 02:03:14;;;;;;;137.63;49.38;;;;;;;;;;2047982;28;99991;-13
2021/07/17 02:04:15;;;;;;;;;;;;;;;;;;2049631;28;99915;-14
2021/07/17 02:05:19;;;;;;;131.77;49.13;;;;;;;;;;2048972;28;100002;-13
2021/07/17 02:06:28;;;;;;;133.15;49.20;;;;;;;;;;2049079;28;100005;-14
2021/07/17 02:07:29;;;;;;;135.23;49.17;;;;;;;;;;2047635;28;99957;-14
2021/07/17 02:08:30;;;;;;;;;;;;;;;;;;2048799;28;99934;-13
2021/07/17 02:09:33;;;;;;;130.95;47.97;;;;;;;;;;2048916;28;100283;-14
2021/07/17 02:10:35;;;;;;;136.07;49.10;;;;;;;;;;2042786;28;100057;-15
2021/07/17 02:11:35;;;;;;;127.63;48.17;;;;;;;;;;2048358;28;100043;-14
2021/07/17 02:12:39;;;;;;;135.95;49.78;;;;;;;;;;2057308;28;99960;-13
2021/07/17 02:13:40;;;;;;;127.35;47.85;;;;;;;;;;2057094;28;99899;-14
2021/07/17 02:14:45;;;;;;;129.68;48.63;;;;;;;;;;2056497;28;100354;-13
2021/07/17 02:15:51;;;;;;;127.97;46.53;;;;;;;;;;2055933;28;100032;-14
2021/07/17 02:16:52;;;;;;;132.25;47.47;;;;;;;;;;2055804;28;100172;-14
2021/07/17 02:17:53;;;;;;;;;;;;;;;;;;2056724;28;99910;-14
2021/07/17 02:19:04;;;;;;;123.63;45.90;;;;;;;;;;2057145;28;100005;-15
2021/07/17 02:20:05;;;;;;;123.00;48.42;;;;;;;;;;2056893;28;100044;-15
2021/07/17 02:21:07;;;;;;;130.65;45.72;;;;;;;;;;2056898;28;99983;-13
2021/07/17 02:22:08;;;;;;;123.20;46.85;;;;;;;;;;2056871;28;99990;-14
2021/07/17 02:23:11;;;;;;;119.38;46.67;;;;;;;;;;2057163;28;99907;-15
2021/07/17 02:24:14;;;;;;;127.50;46.97;;;;;;;;;;2057355;28;99939;-17
2021/07/17 02:25:15;;;;;;;126.43;46.72;;;;;;;;;;2057010;28;99947;-14
2021/07/17 02:26:16;;;;;;;125.38;47.15;;;;;;;;;;2056577;28;99854;-13
2021/07/17 02:27:17;;;;;;;;;;;;;;;;;;2057792;28;100047;-14
2021/07/17 02:28:18;;;;;;;132.52;47.75;;;;;;;;;;2057128;28;100006;-14
2021/07/17 02:29:19;;;;;;;126.50;45.72;;;;;;;;;;2056802;28;100079;-13
2021/07/17 02:30:20;;;;;;;;;;;;;;;;;;2057058;28;100081;-14
2021/07/17 02:31:21;;;;;;;121.22;45.65;;;;;;;;;;2057500;28;100046;-15
2021/07/17 02:32:21;;;;;;;;;;;;;;;;;;2057658;28;99964;-15
2021/07/17 02:33:22;;;;;;;124.00;46.35;;;;;;;;;;2057525;28;100188;-14
2021/07/17 02:34:23;;;;;;;120.70;43.65;;;;;;;;;;2056390;28;100155;-14
2021/07/17 02:35:24;;;;;;;;;;;;;;;;;;2056814;28;99969;-14
2021/07/17 02:36:25;;;;;;;116.57;45.10;;;;;;;;;;2057463;28;100012;-14
2021/07/17 02:37:26;;;;;;;;;;;;;;;;;;2057497;28;99928;-14
2021/07/17 02:38:27;;;;;;;114.55;42.75;;;;;;;;;;2057291;28;99785;-14
2021/07/17 02:39:28;;;;;;;118.00;44.78;;;;;;;;;;2056891;28;99912;-15
2021/07/17 02:40:29;;;;;;;;;;;;;;;;;;2057446;28;99822;-15
2021/07/17 02:41:30;;;;;;;124.05;44.20;;;;;;;;;;2056687;28;99863;-14
2021/07/17 02:42:32;;;;;;;120.22;43.85;;;;;;;;;;2056669;28;99955;-14
2021/07/17 02:43:33;;;;;;;120.03;44.97;;;;;;;;;;2057262;28;99971;-15
2021/07/17 02:44:33;;;;;;;;;;;;;;;;;;2057724;28;100018;-16
2021/07/17 02:45:34;;;;;;;117.32;42.55;;;;;;;;;;2057472;28;99927;-16
2021/07/17 02:46:39;;;;;;;115.00;45.60;;;;;;;;;;2056911;28;100021;-13
2021/07/17 02:47:40;;;;;;;;;;;;;;;;;;2057108;28;99873;-14
2021/07/17 02:48:41;;;;;;;117.57;42.90;;;;;;;;;;2056647;28;100005;-14
2021/07/17 02:49:42;;;;;;;114.28;42.97;;;;;;;;;;2055868;28;100152;-14
2021/07/17 02:50:43;;;;;;;110.03;41.67;;;;;;;;;;2056574;28;100047;-14
2021/07/17 02:51:44;;;;;;;;;;;;;;;;;;2057567;28;100151;-14
2021/07/17 02:52:45;;;;;;;116.15;41.30;;;;;;;;;;2056467;28;99987;-13
2021/07/17 02:53:46;;;;;;;111.28;41.28;;;;;;;;;;2056137;28;100008;-14
2021/07/17 02:54:47;;;;;;;;;;;;;;;;;;2057041;28;99908;-13
2021/07/17 02:55:47;;;;;;;109.28;40.80;;;;;;;;;;2056455;28;99936;-14
2021/07/17 02:56:49;;;;;;;;;;;;;;;;;;2057093;28;99784;-14
2021/07/17 02:57:49;;;;;;;113.00;41.60;;;;;;;;;;2057538;28;99812;-13
2021/07/17 02:58:50;;;;;;;;;;;;;;;;;;2057709;28;99774;-13
2021/07/17 02:59:51;;;;;;;108.10;40.13;;;;;;;;;;2057030;28;100960;-15
2021/07/17 03:00:55;;;;;;;104.25;39.85;;;;;;;;;;2057099;28;99824;-17
2021/07/17 03:01:56;;;;;;;108.90;41.38;;;;;;;;;;2056534;28;100056;-14
2021/07/17 03:02:56;;;;;;;;;;;;;;;;;;2057292;28;99936;-15
2021/07/17 03:03:57;;;;;;;111.73;40.10;;;;;;;;;;2058102;28;100185;-14
2021/07/17 03:04:58;;;;;;;114.18;41.60;;;;;;;;;;2058188;28;100223;-14
2021/07/17 03:05:59;;;;;;;;;;;;;;;;;;2058756;28;99922;-15
2021/07/17 03:07:00;;;;;;;104.10;39.85;;;;;;;;;;2058936;28;99799;-14
2021/07/17 03:08:01;;;;;;;;;;;;;;;;;;2059048;28;99757;-14
2021/07/17 03:09:04;;;;;;;104.28;41.22;;;;;;;;;;2058174;28;99955;-14
2021/07/17 03:10:06;;;;;;;114.70;40.17;;;;;;;;;;2057679;28;100043;-14
2021/07/17 03:11:08;;;;;;;108.03;40.33;;;;;;;;;;2057772;28;100015;-14
2021/07/17 03:12:09;;;;;;;105.65;40.38;;;;;;;;;;2058351;28;99776;-15
2021/07/17 03:13:10;;;;;;;103.63;40.95;;;;;;;;;;2057498;28;100141;-14
2021/07/17 03:14:11;;;;;;;108.80;42.28;;;;;;;;;;2057700;28;100132;-14
2021/07/17 03:15:12;;;;;;;;;;;;;;;;;;2058328;28;100008;-14
2021/07/17 03:16:13;;;;;;;102.78;38.08;;;;;;;;;;2057468;28;100067;-13
2021/07/17 03:17:15;;;;;;;110.07;39.58;;;;;;;;;;2058468;28;99828;-14
2021/07/17 03:18:18;;;;;;;101.45;40.17;;;;;;;;;;2057984;28;100071;-16
2021/07/17 03:19:19;;;;;;;95.65;39.35;;;;;;;;;;2058013;28;100063;-14
2021/07/17 03:20:20;;;;;;;93.38;37.30;;;;;;;;;;2058187;28;99969;-13
2021/07/17 03:21:20;;;;;;;;;;;;;;;;;;2058746;28;99955;-13
2021/07/17 03:22:22;;;;;;;105.18;39.55;;;;;;;;;;2058750;28;99851;-16
2021/07/17 03:23:23;;;;;;;103.95;38.90;;;;;;;;;;2058620;28;99984;-15
2021/07/17 03:24:24;;;;;;;101.07;38.90;;;;;;;;;;2058456;28;100052;-14
2021/07/17 03:25:25;;;;;;;;;;;;;;;;;;2058863;28;99983;-15
2021/07/17 03:26:26;;;;;;;97.40;37.85;;;;;;;;;;2058008;28;100009;-14
2021/07/17 03:27:27;;;;;;;101.05;38.60;;;;;;;;;;2057603;28;100116;-14
2021/07/17 03:28:28;;;;;;;;;;;;;;;;;;2058632;28;99826;-14
2021/07/17 03:29:29;;;;;;;98.22;38.90;;;;;;;;;;2058308;28;99896;-13
2021/07/17 03:30:30;;;;;;;94.63;38.22;;;;;;;;;;2058519;28;99812;-14
2021/07/17 03:31:32;;;;;;;97.95;38.70;;;;;;;;;;2058159;28;100512;-15
2021/07/17 03:32:33;;;;;;;96.28;38.53;;;;;;;;;;2049604;28;100109;-13
2021/07/17 03:33:34;;;;;;;;;;;;;;;;;;2049963;28;100239;-15
2021/07/17 03:34:35;;;;;;;95.60;36.95;;;;;;;;;;2057826;28;100040;-15
2021/07/17 03:35:36;;;;;;;;;;;;;;;;;;2050081;28;100095;-13
2021/07/17 03:36:36;;;;;;;90.50;35.15;;;;;;;;;;2058003;28;99928;-13
2021/07/17 03:37:39;;;;;;;99.35;37.28;;;;;;;;;;2057392;28;99996;-14
2021/07/17 03:38:39;;;;;;;95.78;36.95;;;;;;;;;;2057878;28;99827;-13
2021/07/17 03:39:40;;;;;;;;;;;;;;;;;;2066338;28;99712;-14
2021/07/17 03:40:41;;;;;;;98.47;37.30;;;;;;;;;;2065938;28;100167;-15
2021/07/17 03:41:42;;;;;;;91.88;36.63;;;;;;;;;;2057913;28;99848;-13
2021/07/17 03:42:43;;;;;;;;;;;;;;;;;;2058887;28;99963;-13
2021/07/17 03:43:45;;;;;;;87.05;35.47;;;;;;;;;;2058186;28;99886;-13
2021/07/17 03:44:46;;;;;;;89.05;35.95;;;;;;;;;;2058178;28;99847;-14
2021/07/17 03:45:46;;;;;;;;;;;;;;;;;;2058307;28;99824;-14
2021/07/17 03:46:47;;;;;;;90.22;35.50;;;;;;;;;;2058672;28;100138;-15
2021/07/17 03:47:48;;;;;;;94.72;35.35;;;;;;;;;;2057762;28;100055;-13
2021/07/17 03:48:49;;;;;;;;;;;;;;;;;;2058796;28;99776;-14
2021/07/17 03:49:50;;;;;;;89.05;35.08;;;;;;;;;;2065711;28;99977;-14
2021/07/17 03:50:51;;;;;;;92.30;35.20;;;;;;;;;;2065760;28;100075;-14
2021/07/17 03:51:52;;;;;;;;;;;;;;;;;;2058621;28;99963;-14
2021/07/17 03:52:52;;;;;;;95.77;36.57;;;;;;;;;;2058441;28;99901;-12
2021/07/17 03:53:53;;;;;;;90.78;35.58;;;;;;;;;;2049157;28;100018;-13
2021/07/17 03:54:54;;;;;;;;;;;;;;;;;;2049890;28;100201;-14
2021/07/17 03:55:55;;;;;;;87.78;34.85;;;;;;;;;;2057829;28;99961;-15
2021/07/17 03:56:56;;;;;;;93.35;36.47;;;;;;;;;;2058332;28;100027;-15
2021/07/17 03:57:57;;;;;;;89.25;34.95;;;;;;;;;;2057280;28;100001;-14
2021/07/17 03:58:57;;;;;;;;;;;;;;;;;;2050106;28;100412;-14
2021/07/17 03:59:58;;;;;;;92.68;35.83;;;;;;;;;;2057358;28;100032;-14
2021/07/17 04:00:59;;;;;;;86.95;35.17;;;;;;;;;;2057549;28;100241;-14
2021/07/17 04:02:00;;;;;;;;;;;;;;;;;;2057493;28;100035;-14
2021/07/17 04:03:03;;;;;;;82.03;32.92;;;;;;;;;;2058553;28;99832;-15
2021/07/17 04:04:05;;;;;;;87.20;33.47;;;;;;;;;;2057945;28;100008;-14
2021/07/17 04:05:08;;;;;;;91.78;36.22;;;;;;;;;;2058397;28;99912;-13
2021/07/17 04:06:08;;;;;;;88.07;35.05;;;;;;;;;;2057269;28;100031;-14
2021/07/17 04:07:09;;;;;;;82.47;34.38;;;;;;;;;;2057679;28;99813;-14
2021/07/17 04:08:11;;;;;;;;;;;;;;;;;;2058565;28;99830;-13
2021/07/17 04:09:12;;;;;;;82.55;33.30;;;;;;;;;;2057657;28;99775;-13
2021/07/17 04:10:13;;;;;;;;;;;;;;;;;;2057483;28;100761;-14
2021/07/17 04:11:14;;;;;;;85.07;32.85;;;;;;;;;;2058519;28;100446;-14
2021/07/17 04:12:15;;;;;;;;;;;;;;;;;;2058022;28;100197;-14
2021/07/17 04:13:16;;;;;;;86.10;32.58;;;;;;;;;;2049228;28;99988;-14
2021/07/17 04:14:16;;;;;;;;;;;;;;;;;;2058007;28;100106;-16
2021/07/17 04:15:17;;;;;;;83.90;34.30;;;;;;;;;;2058473;28;99954;-14
2021/07/17 04:16:18;;;;;;;86.70;32.97;;;;;;;;;;2057539;28;100014;-14
2021/07/17 04:17:19;;;;;;;;;;;;;;;;;;2058437;28;100072;-14
2021/07/17 04:18:20;;;;;;;74.88;30.75;;;;;;;;;;2058310;28;99858;-14
2021/07/17 04:19:21;;;;;;;;;;;;;;;;;;2058150;28;99816;-13
2021/07/17 04:20:22;;;;;;;82.03;32.90;;;;;;;;;;2057707;28;99833;-14
2021/07/17 04:21:22;;;;;;;;;;;;;;;;;;2058322;28;100088;-14
2021/07/17 04:22:24;;;;;;;75.25;31.83;;;;;;;;;;2057314;28;100023;-14
2021/07/17 04:23:25;;;;;;;81.15;33.53;;;;;;;;;;2057392;28;100034;-14
2021/07/17 04:24:25;;;;;;;;;;;;;;;;;;2057872;28;100094;-13
2021/07/17 04:25:26;;;;;;;79.50;32.47;;;;;;;;;;2057343;28;100393;-14
2021/07/17 04:26:27;;;;;;;82.88;33.53;;;;;;;;;;2058093;28;99984;-15
2021/07/17 04:27:28;;;;;;;81.32;34.20;;;;;;;;;;2058133;28;100140;-14
2021/07/17 04:28:29;;;;;;;75.97;31.65;;;;;;;;;;2057973;28;99892;-14
2021/07/17 04:29:30;;;;;;;80.38;33.30;;;;;;;;;;2057744;28;99839;-14
2021/07/17 04:30:33;;;;;;;;;;;;;;;;;;2057654;28;100186;-14
2021/07/17 04:31:34;;;;;;;75.55;32.28;;;;;;;;;;2057264;28;99960;-16
2021/07/17 04:32:36;;;;;;;77.47;32.67;;;;;;;;;;2057190;28;100197;-14
2021/07/17 04:33:37;;;;;;;73.05;30.33;;;;;;;;;;2057226;28;99840;-14
2021/07/17 04:34:37;;;;;;;;;;;;;;;;;;2057621;28;100105;-16
2021/07/17 04:35:41;;;;;;;75.95;31.58;;;;;;;;;;2057133;28;100062;-14
2021/07/17 04:36:42;;;;;;;78.47;30.98;;;;;;;;;;2057247;28;99964;-14
2021/07/17 04:37:42;;;;;;;;;;;;;;;;;;2057312;28;100020;-13
2021/07/17 04:38:43;;;;;;;75.97;30.92;;;;;;;;;;2049391;28;100018;-14
2021/07/17 04:39:48;;;;;;;82.35;31.23;;;;;;;;;;2056959;28;100475;-13
2021/07/17 04:40:49;;;;;;;71.75;30.65;;;;;;;;;;2065031;28;100034;-15
2021/07/17 04:41:51;;;;;;;81.43;31.73;;;;;;;;;;2057343;28;99870;-14
2021/07/17 04:42:51;;;;;;;75.45;30.85;;;;;;;;;;2057727;28;99879;-13
2021/07/17 04:43:52;;;;;;;;;;;;;;;;;;2058208;28;99804;-14
2021/07/17 04:44:53;;;;;;;70.70;29.42;;;;;;;;;;2057371;28;100003;-13
2021/07/17 04:45:54;;;;;;;72.90;31.42;;;;;;;;;;2057054;28;99954;-14
2021/07/17 04:46:55;;;;;;;71.93;31.17;;;;;;;;;;2057100;28;99979;-13
2021/07/17 04:47:56;;;;;;;75.55;30.17;;;;;;;;;;2057880;28;99824;-14
2021/07/17 04:48:57;;;;;;;73.22;31.13;;;;;;;;;;2057498;28;100012;-14
2021/07/17 04:50:02;;;;;;;;;;;;;;;;;;2057504;28;99879;-16
2021/07/17 04:51:04;;;;;;;66.03;29.33;;;;;;;;;;2057702;28;100248;-15
2021/07/17 04:52:05;;;;;;;;;;;;;;;;;;2058193;28;99920;-15
2021/07/17 04:53:06;;;;;;;72.53;30.70;;;;;;;;;;2057380;28;99967;-14
2021/07/17 04:54:07;;;;;;;67.05;28.80;;;;;;;;;;2056987;28;100413;-15
2021/07/17 04:55:09;;;;;;;68.28;29.20;;;;;;;;;;2057293;28;100200;-14
2021/07/17 04:56:09;;;;;;;72.60;29.90;;;;;;;;;;2057593;28;99829;-15
2021/07/17 04:57:10;;;;;;;;;;;;;;;;;;2058155;28;99827;-13
2021/07/17 04:58:11;;;;;;;75.00;29.05;;;;;;;;;;2056923;28;100063;-14
2021/07/17 04:59:12;;;;;;;60.40;28.27;;;;;;;;;;2049200;28;99898;-14
2021/07/17 05:00:13;;;;;;;;;;;;;;;;;;2057252;28;100060;-13
2021/07/17 05:01:14;;;;;;;72.10;30.05;;;;;;;;;;2056722;28;100173;-15
2021/07/17 05:02:15;;;;;;;67.72;27.65;;;;;;;;;;2049015;28;100058;-16
2021/07/17 05:03:16;;;;;;;;;;;;;;;;;;2057374;28;100048;-15
2021/07/17 05:04:17;;;;;;;68.18;27.40;;;;;;;;;;2056748;28;99880;-14
2021/07/17 05:05:19;;;;;;;71.13;29.08;;;;;;;;;;2056721;28;100213;-15
2021/07/17 05:06:19;;;;;;;70.47;29.45;;;;;;;;;;2057038;28;99892;-13
2021/07/17 05:07:20;;;;;;;;;;;;;;;;;;2057468;28;99904;-14
2021/07/17 05:08:21;;;;;;;70.03;29.75;;;;;;;;;;2057217;28;100182;-14
2021/07/17 05:09:22;;;;;;;68.40;28.88;;;;;;;;;;2057667;28;99983;-14
2021/07/17 05:10:24;;;;;;;;;;;;;;;;;;2057642;28;100071;-16
2021/07/17 05:11:25;;;;;;;69.32;27.90;;;;;;;;;;2056830;28;100104;-16
2021/07/17 05:12:26;;;;;;;;;;;;;;;;;;2057299;28;100086;-15
2021/07/17 05:13:27;;;;;;;67.35;27.20;;;;;;;;;;2057336;28;100013;-15
2021/07/17 05:14:27;;;;;;;;;;;;;;;;;;2057462;28;100039;-13
2021/07/17 05:15:28;;;;;;;65.13;27.65;;;;;;;;;;2057201;28;99947;-14
2021/07/17 05:16:29;;;;;;;;;;;;;;;;;;2057796;28;100162;-14
2021/07/17 05:17:30;;;;;;;63.83;27.95;;;;;;;;;;2057866;28;99977;-14
2021/07/17 05:18:32;;;;;;;66.53;27.20;;;;;;;;;;2057958;28;99912;-14
2021/07/17 05:19:33;;;;;;;59.85;27.35;;;;;;;;;;2057203;28;99959;-14
2021/07/17 05:20:35;;;;;;;62.70;28.23;;;;;;;;;;2057721;28;100508;-14
2021/07/17 05:21:36;;;;;;;;;;;;;;;;;;2056933;28;100066;-13
2021/07/17 05:22:37;;;;;;;58.00;25.70;;;;;;;;;;2057181;28;100403;-15
2021/07/17 05:23:38;;;;;;;64.63;26.30;;;;;;;;;;2057181;28;99808;-14
2021/07/17 05:24:40;;;;;;;;;;;;;;;;;;2058268;28;99746;-14
2021/07/17 05:25:42;;;;;;;63.20;27.77;;;;;;;;;;2064475;28;99900;-14
2021/07/17 05:26:43;;;;;;;61.10;27.08;;;;;;;;;;2056635;28;100018;-14
2021/07/17 05:27:43;;;;;;;;;;;;;;;;;;2057214;28;101263;-13
2021/07/17 05:28:44;;;;;;;55.80;25.95;;;;;;;;;;2057670;28;99971;-14
2021/07/17 05:29:46;;;;;;;;;;;;;;;;;;2057792;28;99947;-16
2021/07/17 05:30:46;;;;;;;;;;;;;;;;;;2057974;28;99955;-16
2021/07/17 05:31:47;;;;;;;58.03;25.42;;;;;;;;;;2057517;28;99924;-15
2021/07/17 05:32:51;;;;;;;;;;;;;;;;;;2057630;28;100065;-15
2021/07/17 05:33:52;;;;;;;61.92;25.30;;;;;;;;;;2048975;28;99961;-13
2021/07/17 05:34:52;;;;;;;;;;;;;;;;;;2057379;28;100604;-14
2021/07/17 05:35:54;;;;;;;60.03;26.58;;;;;;;;;;2057870;28;99887;-13
2021/07/17 05:36:54;;;;;;;;;;;;;;;;;;2057849;28;99941;-15
2021/07/17 05:37:58;;;;;;;59.30;26.63;;;;;;;;;;2056813;28;100231;-13
2021/07/17 05:38:59;;;;;;;58.50;25.15;;;;;;;;;;2057344;28;100188;-13
2021/07/17 05:40:00;;;;;;;62.85;26.65;;;;;;;;;;2056721;28;100453;-15
2021/07/17 05:41:01;;;;;;;;;;;;;;;;;;2057390;28;100092;-14
2021/07/17 05:42:03;;;;;;;56.80;24.95;;;;;;;;;;2056937;28;99886;-14
2021/07/17 05:43:04;;;;;;;57.33;25.55;;;;;;;;;;2056665;28;100045;-14
2021/07/17 05:44:05;;;;;;;;;;;;;;;;;;2057850;28;99955;-14
2021/07/17 05:45:06;;;;;;;59.03;25.60;;;;;;;;;;2057832;28;99804;-15
2021/07/17 05:46:07;;;;;;;57.00;24.67;;;;;;;;;;2057284;28;100018;-15
2021/07/17 05:47:11;;;;;;;;;;;;;;;;;;2057634;28;99889;-15
2021/07/17 05:48:14;;;;;;;59.75;24.45;;;;;;;;;;2057692;28;99947;-15
2021/07/17 05:49:15;;;;;;;59.22;25.85;;;;;;;;;;2057461;28;99987;-16
2021/07/17 05:50:16;;;;;;;;;;;;;;;;;;2057487;28;99999;-17
2021/07/17 05:51:17;;;;;;;52.40;23.27;;;;;;;;;;2057290;28;99908;-12
2021/07/17 05:52:18;;;;;;;53.28;24.48;;;;;;;;;;2064783;28;100052;-15
2021/07/17 05:53:18;;;;;;;53.92;24.45;;;;;;;;;;2064528;28;100610;-14
2021/07/17 05:54:20;;;;;;;54.85;25.30;;;;;;;;;;2057419;28;99789;-14
2021/07/17 05:55:21;;;;;;;55.15;24.85;;;;;;;;;;2057291;28;99795;-15
2021/07/17 05:56:22;;;;;;;57.50;25.25;;;;;;;;;;2057528;28;99764;-14
2021/07/17 05:57:23;;;;;;;52.47;24.95;;;;;;;;;;2057395;28;100094;-13
2021/07/17 05:58:24;;;;;;;55.35;24.42;;;;;;;;;;2056819;28;100019;-15
2021/07/17 05:59:25;;;;;;;55.08;25.10;;;;;;;;;;2048632;28;100471;-16
2021/07/17 06:00:26;;;;;;;54.58;25.10;;;;;;;;;;2056809;28;100609;-14
2021/07/17 06:01:27;;;;;;;52.88;25.35;;;;;;;;;;2057415;28;100127;-13
2021/07/17 06:02:28;;;;;;;;;;;;;;;;;;2057847;28;99721;-15
2021/07/17 06:03:29;;;;;;;54.75;24.42;;;;;;;;;;2057535;28;100539;-15
2021/07/17 06:04:30;;;;;;;56.75;25.73;;;;;;;;;;2056626;28;99988;-15
2021/07/17 06:05:31;;;;;;;44.95;21.15;;;;;;;;;;2056898;28;100020;-13